Time;durP1;ratioP1;P1;durP2;ratioP2;P2;SDS_P1;SDS_P2;PMS_P1;PMS_P2;Temp;Humidity;BMP_temperature;BMP_pressure;BME280_temperature;BME280_humidity;BME280_pressure;Samples;Min_cycle;Max_cycle;Signal;HPM_P1;HPM_P2
2023/10/02 00:00:43;;;;;;;8.82;7.68;;;;;;;15.01;100.00;101650.44;6139435;23;20024;-71
2023/10/02 00:03:09;;;;;;;11.00;6.78;;;;;;;15.09;100.00;101657.97;6133099;23;20021;-71
2023/10/02 00:05:40;;;;;;;9.77;7.63;;;;;;;15.09;100.00;101658.81;6113952;23;20016;-71
2023/10/02 00:08:31;;;;;;;8.15;7.22;;;;;;;14.98;100.00;101653.28;6135037;23;20025;-72
2023/10/02 00:11:02;;;;;;;10.18;6.95;;;;;;;15.06;100.00;101659.00;6145818;23;20036;-70
2023/10/02 00:13:32;;;;;;;9.13;7.32;;;;;;;15.04;100.00;101665.31;6117676;23;20057;-71
2023/10/02 00:15:59;;;;;;;8.68;7.60;;;;;;;15.05;100.00;101667.84;6165588;23;20391;-71
2023/10/02 00:18:27;;;;;;;10.30;7.18;;;;;;;14.80;100.00;101625.22;6136095;23;20028;-69
2023/10/02 00:21:17;;;;;;;8.77;6.88;;;;;;;14.86;100.00;101640.75;6166545;23;20653;-70
2023/10/02 00:23:59;;;;;;;8.15;7.15;;;;;;;15.03;100.00;101659.16;6136107;23;20411;-72
2023/10/02 00:26:26;;;;;;;11.10;7.90;;;;;;;15.00;100.00;101669.06;6166442;23;20016;-70
2023/10/02 00:28:52;;;;;;;9.73;7.72;;;;;;;14.91;100.00;101649.25;6166710;23;20472;-70
2023/10/02 00:31:35;;;;;;;8.50;7.05;;;;;;;14.49;100.00;101595.16;6145445;23;20025;-70
2023/10/02 00:34:03;;;;;;;15.05;6.97;;;;;;;14.95;100.00;101664.00;6166121;23;20021;-72
2023/10/02 00:36:30;;;;;;;8.25;7.00;;;;;;;14.51;100.00;101607.38;6137845;23;20051;-70
2023/10/02 00:39:47;;;;;;;8.20;7.38;;;;;;;14.87;100.00;101656.50;6137010;23;20033;-71
2023/10/02 00:47:38;;;;;;;7.22;6.55;;;;;;;14.67;100.00;101647.03;6109816;23;20026;-75
2023/10/02 00:50:10;;;;;;;10.07;6.90;;;;;;;14.74;100.00;101664.25;6114650;23;20040;-71
2023/10/02 00:52:58;;;;;;;11.38;7.55;;;;;;;14.35;100.00;101609.97;6112095;23;20062;-73
2023/10/02 00:55:37;;;;;;;7.97;7.20;;;;;;;14.43;100.00;101635.94;6139341;23;20070;-70
2023/10/02 00:58:05;;;;;;;14.00;7.65;;;;;;;14.62;100.00;101679.94;6084739;23;20547;-72
2023/10/02 01:00:36;;;;;;;8.32;7.00;;;;;;;14.65;100.00;101674.47;6138913;23;20559;-71
2023/10/02 01:03:08;;;;;;;11.05;7.55;;;;;;;14.65;100.00;101680.59;6120732;23;20045;-71
2023/10/02 01:05:47;;;;;;;7.90;7.20;;;;;;;14.64;100.00;101684.19;6138266;23;20038;-70
2023/10/02 01:08:42;;;;;;;11.50;7.80;;;;;;;14.13;100.00;101606.75;6109738;23;20078;-72
2023/10/02 01:11:13;;;;;;;7.13;6.43;;;;;;;14.46;100.00;101658.72;6112413;23;20022;-72
2023/10/02 01:13:41;;;;;;;9.23;7.57;;;;;;;14.54;100.00;101678.50;6111130;23;20063;-70
2023/10/02 01:16:09;;;;;;;9.60;7.25;;;;;;;14.55;100.00;101680.22;6112736;23;20088;-72
2023/10/02 01:18:37;;;;;;;10.57;7.80;;;;;;;14.55;100.00;101681.97;6139257;23;20020;-70
2023/10/02 01:21:11;;;;;;;9.60;7.38;;;;;;;14.56;100.00;101689.03;6079103;23;20033;-71
2023/10/02 01:24:07;;;;;;;8.52;7.28;;;;;;;14.55;100.00;101677.56;6140564;23;20097;-71
2023/10/02 01:26:40;;;;;;;8.38;7.63;;;;;;;14.41;100.00;101669.50;6139197;23;20475;-70
2023/10/02 01:29:07;;;;;;;8.20;7.28;;;;;;;14.36;100.00;101661.00;6106753;23;20025;-71
2023/10/02 01:31:44;;;;;;;7.95;7.18;;;;;;;14.32;100.00;101651.53;6113105;23;20084;-71
2023/10/02 01:37:00;;;;;;;8.50;6.80;;;;;;;14.48;100.00;101683.25;6124153;23;20028;-73
2023/10/02 01:39:26;;;;;;;13.02;7.72;;;;;;;14.48;100.00;101686.75;6106821;23;20097;-72
2023/10/02 01:41:53;;;;;;;10.57;8.27;;;;;;;14.07;100.00;101622.91;6138150;23;20656;-71
2023/10/02 01:44:24;;;;;;;10.82;7.60;;;;;;;14.44;100.00;101689.63;6152224;23;20016;-72
2023/10/02 01:46:52;;;;;;;15.65;7.47;;;;;;;14.41;100.00;101690.63;6150265;23;20033;-72
2023/10/02 01:49:26;;;;;;;10.40;7.22;;;;;;;14.41;100.00;101684.50;6170950;23;20098;-71
2023/10/02 01:52:07;;;;;;;10.35;7.28;;;;;;;14.08;100.00;101635.19;6141870;23;20020;-72
2023/10/02 01:54:35;;;;;;;8.48;7.32;;;;;;;14.01;100.00;101628.50;6169179;23;20031;-71
2023/10/02 01:57:04;;;;;;;12.05;7.90;;;;;;;14.20;100.00;101676.78;6141106;23;20191;-71
2023/10/02 01:59:31;;;;;;;10.90;7.43;;;;;;;14.11;100.00;101658.75;6164805;23;20021;-70
2023/10/02 02:01:57;;;;;;;7.85;7.05;;;;;;;14.12;100.00;101648.13;6140403;23;20032;-73
2023/10/02 02:04:32;;;;;;;15.90;7.10;;;;;;;13.91;100.00;101630.75;6171059;23;20028;-70
2023/10/02 02:07:01;;;;;;;13.48;8.05;;;;;;;14.29;100.00;101689.50;6145591;23;20039;-70
2023/10/02 02:09:35;;;;;;;10.05;7.72;;;;;;;13.72;100.00;101599.19;6153543;23;20044;-70
2023/10/02 02:12:08;;;;;;;8.45;7.55;;;;;;;14.25;100.00;101677.41;6170973;23;20081;-70
2023/10/02 02:14:40;;;;;;;10.80;7.60;;;;;;;14.21;100.00;101681.09;6173714;23;20065;-70
2023/10/02 02:17:10;;;;;;;12.32;7.70;;;;;;;13.89;100.00;101641.41;6142049;23;20040;-72
2023/10/02 02:19:41;;;;;;;10.48;7.25;;;;;;;14.19;100.00;101677.69;6143976;23;20077;-72
2023/10/02 02:22:07;;;;;;;8.23;6.63;;;;;;;14.18;100.00;101689.19;6121573;23;20024;-73
2023/10/02 02:24:34;;;;;;;10.25;7.00;;;;;;;14.21;100.00;101683.75;6139268;23;20561;-73
2023/10/02 02:27:04;;;;;;;8.40;7.07;;;;;;;13.98;100.00;101647.16;6145572;23;20091;-72
2023/10/02 02:29:30;;;;;;;7.47;6.88;;;;;;;14.20;100.00;101679.41;6141211;23;20417;-73
2023/10/02 02:31:57;;;;;;;8.13;6.50;;;;;;;13.79;100.00;101619.06;6168980;23;20135;-73
2023/10/02 02:34:24;;;;;;;8.32;7.13;;;;;;;13.70;100.00;101596.63;6138138;23;20046;-72
2023/10/02 02:36:51;;;;;;;8.38;7.03;;;;;;;13.75;100.00;101606.94;6109305;23;20151;-72
2023/10/02 02:39:22;;;;;;;8.93;7.13;;;;;;;13.95;100.00;101643.72;6163111;23;20062;-73
2023/10/02 02:42:09;;;;;;;8.98;6.93;;;;;;;13.74;100.00;101597.34;6115356;23;20348;-72
2023/10/02 02:44:39;;;;;;;9.73;6.90;;;;;;;14.20;100.00;101674.13;6109773;23;20404;-72
2023/10/02 02:47:08;;;;;;;11.40;7.13;;;;;;;14.19;100.00;101671.56;6139210;23;20464;-70
2023/10/02 02:49:48;;;;;;;9.50;6.80;;;;;;;14.07;100.00;101657.22;6171167;23;20027;-73
2023/10/02 02:52:25;;;;;;;9.20;7.18;;;;;;;13.90;100.00;101639.63;6136685;23;20086;-73
2023/10/02 02:55:03;;;;;;;7.90;6.90;;;;;;;14.09;100.00;101668.53;6168860;23;20691;-72
2023/10/02 02:57:32;;;;;;;10.07;7.03;;;;;;;13.83;100.00;101630.28;6140028;23;20514;-71
2023/10/02 03:02:52;;;;;;;9.57;7.05;;;;;;;13.96;100.00;101670.97;6134352;23;20021;-73
2023/10/02 03:05:21;;;;;;;10.32;7.15;;;;;;;13.96;100.00;101663.91;6165176;23;20120;-73
2023/10/02 03:07:54;;;;;;;12.07;6.85;;;;;;;12.20;100.00;101377.44;6143189;23;20179;-71
2023/10/02 03:10:22;;;;;;;;;;;;;;;13.89;100.00;101662.53;6137864;23;20211;-71
2023/10/02 03:12:51;;;;;;;9.95;6.55;;;;;;;13.58;100.00;101621.00;6167370;23;19916;-71
2023/10/02 03:15:19;;;;;;;12.48;7.68;;;;;;;13.87;100.00;101669.66;6137577;23;20044;-71
2023/10/02 03:17:48;;;;;;;10.10;7.05;;;;;;;13.87;100.00;101658.22;6167335;23;20068;-73
2023/10/02 03:20:24;;;;;;;9.00;7.70;;;;;;;13.61;100.00;101620.84;6137641;23;20033;-71
2023/10/02 03:22:54;;;;;;;9.48;7.20;;;;;;;13.85;100.00;101670.66;6143826;23;20037;-70
2023/10/02 03:25:28;;;;;;;11.95;6.95;;;;;;;13.92;100.00;101664.16;6170147;23;20040;-72
2023/10/02 03:27:57;;;;;;;8.43;6.68;;;;;;;13.91;100.00;101657.13;6162671;23;20066;-70
2023/10/02 03:30:38;;;;;;;11.60;7.05;;;;;;;13.89;100.00;101651.09;6137315;23;20032;-72
2023/10/02 03:33:20;;;;;;;8.80;7.30;;;;;;;13.75;100.00;101633.31;6171805;23;20048;-71
2023/10/02 03:35:58;;;;;;;12.95;6.95;;;;;;;13.82;100.00;101653.19;6109795;23;20016;-70
2023/10/02 03:38:34;;;;;;;7.60;6.85;;;;;;;13.83;100.00;101654.91;6141422;23;20025;-72
2023/10/02 03:41:02;;;;;;;8.85;7.35;;;;;;;13.72;100.00;101639.59;6139131;23;20032;-72
2023/10/02 03:43:37;;;;;;;7.38;6.68;;;;;;;13.81;100.00;101656.78;6147105;23;20082;-73
2023/10/02 03:46:13;;;;;;;9.57;7.15;;;;;;;13.77;100.00;101655.19;6166984;23;20032;-73
2023/10/02 03:48:40;;;;;;;8.75;7.40;;;;;;;13.72;100.00;101650.16;6172096;23;20009;-71
2023/10/02 03:51:07;;;;;;;10.55;7.78;;;;;;;13.43;100.00;101614.72;6138929;23;20025;-72
2023/10/02 03:53:36;;;;;;;9.50;7.35;;;;;;;13.74;100.00;101656.22;6164756;23;20542;-71
2023/10/02 03:58:53;;;;;;;14.00;7.88;;;;;;;13.71;100.00;101653.75;6166597;23;21817;-73
2023/10/02 04:01:30;;;;;;;9.52;8.55;;;;;;;13.68;100.00;101647.75;6135892;23;20574;-70
2023/10/02 04:06:47;;;;;;;10.48;7.47;;;;;;;13.65;100.00;101642.63;6137598;23;20213;-72
2023/10/02 04:11:48;;;;;;;9.30;7.22;;;;;;;13.61;100.00;101633.16;6170606;23;20024;-72
2023/10/02 04:14:17;;;;;;;10.50;7.30;;;;;;;13.50;100.00;101615.25;6138322;23;20516;-69
2023/10/02 04:16:47;;;;;;;7.22;6.25;;;;;;;13.68;100.00;101643.34;6139155;23;20280;-72
2023/10/02 04:19:15;;;;;;;10.35;7.35;;;;;;;13.69;100.00;101645.06;6162785;23;20020;-72
2023/10/02 04:21:45;;;;;;;8.73;7.28;;;;;;;13.68;100.00;101639.84;6136955;23;20067;-72
2023/10/02 04:24:12;;;;;;;9.13;7.60;;;;;;;13.17;100.00;101556.19;6165948;23;20038;-72
2023/10/02 04:26:41;;;;;;;11.63;7.47;;;;;;;12.68;100.00;101474.25;6136732;23;20031;-71
2023/10/02 04:29:26;;;;;;;10.70;7.43;;;;;;;13.61;100.00;101631.41;6169837;23;20345;-70
2023/10/02 04:34:46;;;;;;;11.40;7.20;;;;;;;13.34;100.00;101599.34;6169598;23;20020;-71
2023/10/02 04:37:20;;;;;;;9.13;7.45;;;;;;;13.56;100.00;101626.34;6132163;23;20421;-72
2023/10/02 04:42:57;;;;;;;8.60;7.05;;;;;;;13.31;100.00;101610.00;6137690;23;20455;-70
2023/10/02 04:45:25;;;;;;;9.52;7.90;;;;;;;13.50;100.00;101631.91;6131164;23;20025;-70
2023/10/02 04:47:58;;;;;;;13.45;8.20;;;;;;;13.48;100.00;101638.19;6159804;23;20356;-70
2023/10/02 04:52:58;;;;;;;10.27;7.28;;;;;;;13.12;100.00;101592.44;6167762;23;20830;-70
2023/10/02 04:55:41;;;;;;;8.85;7.38;;;;;;;12.81;100.00;101550.03;6137105;23;20510;-71
2023/10/02 04:58:14;;;;;;;9.88;7.28;;;;;;;13.32;100.00;101630.19;6163460;23;20214;-71
2023/10/02 05:03:35;;;;;;;9.75;7.45;;;;;;;13.38;100.00;101639.59;6127646;23;20112;-72
2023/10/02 05:06:03;;;;;;;8.02;6.13;;;;;;;12.93;100.00;101568.78;6138330;23;20039;-71
2023/10/02 05:08:40;;;;;;;9.90;7.03;;;;;;;13.28;100.00;101631.22;6109578;23;20700;-71
2023/10/02 05:11:24;;;;;;;7.95;6.95;;;;;;;13.35;100.00;101640.59;6172038;23;20047;-70
2023/10/02 05:16:33;;;;;;;10.43;7.65;;;;;;;13.38;100.00;101643.06;6135310;23;20029;-70
2023/10/02 05:19:04;;;;;;;16.35;7.68;;;;;;;13.08;100.00;101596.16;6172017;23;20029;-72
2023/10/02 05:21:36;;;;;;;11.85;7.78;;;;;;;13.38;100.00;101647.50;6137575;23;21126;-72
2023/10/02 05:24:12;;;;;;;7.63;6.88;;;;;;;13.30;100.00;101635.53;6141956;23;20226;-72
2023/10/02 05:26:41;;;;;;;13.80;8.25;;;;;;;13.35;100.00;101645.88;6144683;23;20299;-70
2023/10/02 05:29:17;;;;;;;10.07;6.63;;;;;;;13.27;100.00;101632.16;6147452;23;20032;-70
2023/10/02 05:31:45;;;;;;;7.63;6.90;;;;;;;13.01;100.00;101586.84;6142324;23;20369;-71
2023/10/02 05:34:25;;;;;;;11.40;7.40;;;;;;;12.93;100.00;101589.84;6125005;23;20198;-72
2023/10/02 05:39:39;;;;;;;8.63;6.53;;;;;;;13.33;100.00;101650.34;6145046;23;20663;-70
2023/10/02 05:42:12;;;;;;;10.15;7.30;;;;;;;12.97;100.00;101593.19;6115522;23;20371;-70
2023/10/02 05:44:42;;;;;;;10.25;6.63;;;;;;;13.36;100.00;101658.09;6142900;23;20021;-72
2023/10/02 05:47:11;;;;;;;8.40;7.25;;;;;;;13.29;100.00;101648.75;6137309;23;20036;-70
2023/10/02 05:49:57;;;;;;;10.30;7.30;;;;;;;13.39;100.00;101662.38;6169683;23;20031;-71
2023/10/02 05:52:23;;;;;;;11.07;6.88;;;;;;;13.40;100.00;101658.81;6137299;23;20037;-71
2023/10/02 05:54:56;;;;;;;9.65;7.03;;;;;;;13.28;100.00;101653.16;6167268;23;20005;-73
2023/10/02 05:57:22;;;;;;;7.45;6.60;;;;;;;13.24;100.00;101654.25;6140858;23;20091;-72
2023/10/02 05:59:54;;;;;;;9.50;7.50;;;;;;;13.06;100.00;101616.44;6170131;23;20029;-72
2023/10/02 06:02:24;;;;;;;8.57;6.80;;;;;;;13.23;100.00;101642.00;6137739;23;20119;-71
2023/10/02 06:04:52;;;;;;;8.85;6.82;;;;;;;13.50;100.00;101682.03;6141537;23;20502;-69
2023/10/02 06:10:18;;;;;;;13.27;7.15;;;;;;;13.55;100.00;101687.94;6166821;23;20325;-69
2023/10/02 06:12:47;;;;;;;10.85;7.35;;;;;;;13.36;100.00;101653.69;6143430;23;20375;-70
2023/10/02 06:17:59;;;;;;;7.60;6.22;;;;;;;13.09;100.00;101600.50;6143478;23;20021;-74
2023/10/02 06:20:26;;;;;;;11.65;7.28;;;;;;;13.61;100.00;101665.69;6113557;23;20539;-70
2023/10/02 06:23:05;;;;;;;11.85;6.25;;;;;;;13.55;100.00;101637.84;6169834;23;20177;-71
2023/10/02 06:25:32;;;;;;;16.73;7.82;;;;;;;13.74;100.00;101671.19;6167361;23;20036;-69
2023/10/02 06:28:19;;;;;;;11.13;7.00;;;;;;;13.45;100.00;101609.34;6137662;23;20013;-72
2023/10/02 06:30:46;;;;;;;9.05;6.70;;;;;;;13.73;100.00;101635.19;6171762;23;20089;-71
2023/10/02 06:33:12;;;;;;;11.20;6.25;;;;;;;13.91;100.00;101654.50;6114092;23;20024;-70
2023/10/02 06:35:44;;;;;;;11.30;7.25;;;;;;;13.30;100.00;101542.41;6144846;23;20017;-69
2023/10/02 06:38:18;;;;;;;7.68;7.00;;;;;;;14.10;100.00;101652.63;6166386;23;20087;-70
2023/10/02 06:40:55;;;;;;;10.85;7.43;;;;;;;14.18;100.00;101649.59;6116675;23;20222;-71
2023/10/02 06:43:30;;;;;;;13.32;7.03;;;;;;;14.23;100.00;101644.06;6123091;23;20403;-70
2023/10/02 06:46:10;;;;;;;11.77;8.38;;;;;;;13.88;100.00;101571.09;6163744;23;20149;-73
2023/10/02 06:48:43;;;;;;;10.25;7.05;;;;;;;14.30;100.00;101635.75;6141608;23;20088;-71
2023/10/02 06:51:19;;;;;;;;;;;;;;;14.44;100.00;101639.47;6168644;23;20290;-71
2023/10/02 06:53:45;;;;;;;14.70;7.85;;;;;;;14.03;100.00;101550.97;6165611;23;19913;-73
2023/10/02 06:56:13;;;;;;;11.85;7.30;;;;;;;14.45;100.00;101604.19;6166043;23;20031;-71
2023/10/02 06:58:49;;;;;;;11.00;7.35;;;;;;;14.64;100.00;101606.72;6158881;23;20029;-71
2023/10/02 07:01:27;;;;;;;10.43;6.88;;;;;;;14.43;100.00;101558.50;6137521;23;20216;-70
2023/10/02 07:03:56;;;;;;;8.63;7.13;;;;;;;14.90;100.00;101595.56;6163777;23;20016;-71
2023/10/02 07:06:28;;;;;;;13.25;7.45;;;;;;;15.02;100.00;101590.53;6128921;23;20025;-70
2023/10/02 07:09:14;;;;;;;8.93;6.93;;;;;;;15.12;100.00;101576.69;6139876;23;20496;-70
2023/10/02 07:11:45;;;;;;;9.70;7.55;;;;;;;15.10;100.00;101552.13;6135951;23;20033;-73
2023/10/02 07:14:12;;;;;;;12.65;8.00;;;;;;;15.00;100.00;101516.59;6160767;23;20447;-72
2023/10/02 07:16:39;;;;;;;8.43;6.90;;;;;;;15.45;100.00;101562.44;6103937;23;20033;-71
2023/10/02 07:19:06;;;;;;;7.38;6.60;;;;;;;15.58;100.00;101559.94;6135350;23;20508;-72
2023/10/02 07:21:35;;;;;;;10.88;7.80;;;;;;;15.19;100.00;101484.63;6144817;23;20487;-70
2023/10/02 07:24:03;;;;;;;13.23;7.65;;;;;;;15.62;100.00;101535.00;6114698;23;20447;-71
2023/10/02 07:26:49;;;;;;;11.90;7.68;;;;;;;15.71;100.00;101528.28;6166256;23;20049;-71
2023/10/02 07:29:17;;;;;;;14.98;7.78;;;;;;;15.47;100.00;101483.81;6141634;23;20460;-70
2023/10/02 07:31:45;;;;;;;8.93;6.82;;;;;;;15.87;100.00;101523.78;6138638;23;20025;-72
2023/10/02 07:34:13;;;;;;;11.60;7.13;;;;;;;15.99;100.00;101524.81;6164621;23;20020;-69
2023/10/02 07:36:44;;;;;;;9.77;7.32;;;;;;;16.02;100.00;101514.06;6141813;23;21326;-72
2023/10/02 07:39:35;;;;;;;11.57;7.22;;;;;;;15.80;100.00;101452.81;6140172;23;20293;-73
2023/10/02 07:42:04;;;;;;;8.43;7.35;;;;;;;16.19;100.00;101481.22;6139962;23;20589;-71
2023/10/02 07:44:39;;;;;;;9.23;7.00;;;;;;;16.33;100.00;101465.28;6167965;23;20203;-69
2023/10/02 07:47:20;;;;;;;11.13;7.72;;;;;;;15.66;100.00;101330.09;6139467;23;20086;-69
2023/10/02 07:49:51;;;;;;;9.95;7.35;;;;;;;16.64;100.00;101450.06;6143152;23;20475;-69
2023/10/02 07:52:29;;;;;;;9.68;7.70;;;;;;;16.41;100.00;101395.91;6134979;23;20021;-71
2023/10/02 07:55:02;;;;;;;9.98;7.63;;;;;;;16.39;100.00;101349.28;6138003;23;20052;-69
2023/10/02 07:57:32;;;;;;;9.63;7.38;;;;;;;16.93;100.00;101429.59;6139013;23;20093;-71
2023/10/02 08:00:06;;;;;;;7.72;6.57;;;;;;;16.75;100.00;101360.06;6145118;23;20647;-68
2023/10/02 08:02:33;;;;;;;11.48;7.38;;;;;;;17.13;100.00;101387.59;6151844;23;20386;-73
2023/10/02 08:05:03;;;;;;;8.20;7.13;;;;;;;17.28;100.00;101394.53;6135998;23;20149;-71
2023/10/02 08:07:30;;;;;;;8.52;7.38;;;;;;;17.33;100.00;101375.63;6164418;23;20242;-71
2023/10/02 08:10:10;;;;;;;11.48;8.55;;;;;;;17.43;100.00;101355.44;6132219;23;20013;-71
2023/10/02 08:12:37;;;;;;;11.57;8.02;;;;;;;17.50;100.00;101343.44;6166741;23;20036;-70
2023/10/02 08:15:26;;;;;;;10.10;7.50;;;;;;;17.68;100.00;101345.72;6165334;23;20024;-73
2023/10/02 08:20:24;;;;;;;13.23;7.72;;;;;;;17.66;100.00;101279.50;6140223;23;20451;-70
2023/10/02 08:22:54;;;;;;;11.60;7.28;;;;;;;18.22;100.00;101329.41;6139236;23;20040;-72
2023/10/02 08:25:23;;;;;;;13.05;8.43;;;;;;;18.33;100.00;101308.19;6139842;23;20459;-71
2023/10/02 08:27:57;;;;;;;8.43;7.38;;;;;;;18.46;100.00;101300.16;6165330;23;20083;-73
2023/10/02 08:30:31;;;;;;;9.07;7.03;;;;;;;18.38;100.00;101235.25;6112410;23;20462;-70
2023/10/02 08:33:06;;;;;;;11.45;7.68;;;;;;;18.58;100.00;101266.44;6170362;23;20441;-70
2023/10/02 08:35:51;;;;;;;9.68;7.70;;;;;;;18.01;100.00;101145.94;6137445;23;20001;-70
2023/10/02 08:38:26;;;;;;;8.35;7.43;;;;;;;18.33;100.00;101177.16;6170182;23;20044;-73
2023/10/02 08:41:03;;;;;;;9.90;7.25;;;;;;;18.27;100.00;101186.44;6136260;23;20020;-72
2023/10/02 08:43:32;;;;;;;11.20;7.65;;;;;;;18.70;100.00;101238.94;6169157;23;20054;-71
2023/10/02 08:45:59;;;;;;;8.05;7.00;;;;;;;18.86;100.00;101243.94;6112646;23;20517;-72
2023/10/02 08:48:26;;;;;;;12.32;8.02;;;;;;;18.98;100.00;101234.13;6173120;23;20066;-71
2023/10/02 08:50:57;;;;;;;11.90;8.10;;;;;;;18.85;100.00;101174.91;6135501;23;22025;-72
2023/10/02 08:53:24;;;;;;;10.68;7.78;;;;;;;19.18;99.68;101203.25;6143148;23;20048;-71
2023/10/02 08:55:59;;;;;;;9.27;7.32;;;;;;;19.29;96.77;101165.16;6116085;23;20040;-72
2023/10/02 08:58:27;;;;;;;12.23;7.38;;;;;;;19.22;97.18;101142.66;6171379;23;20144;-70
2023/10/02 09:03:41;;;;;;;11.40;8.00;;;;;;;19.56;92.78;101102.63;6173296;23;20091;-73
2023/10/02 09:09:16;;;;;;;11.02;7.45;;;;;;;19.75;95.58;101168.53;6173660;23;20048;-72
2023/10/02 09:11:44;;;;;;;9.98;7.55;;;;;;;19.89;93.62;101137.09;6164745;23;20513;-71
2023/10/02 09:14:21;;;;;;;9.77;7.53;;;;;;;19.68;90.50;101049.16;6142889;23;20028;-72
2023/10/02 09:17:07;;;;;;;12.73;7.90;;;;;;;20.00;88.05;101044.75;6142829;23;20027;-71
2023/10/02 09:19:37;;;;;;;10.68;7.80;;;;;;;20.11;89.34;101097.97;6144257;23;20051;-71
2023/10/02 09:22:10;;;;;;;10.02;7.45;;;;;;;20.18;89.64;101092.94;6141568;23;20103;-71
2023/10/02 09:24:58;;;;;;;13.48;7.60;;;;;;;20.57;89.50;101147.28;6143107;23;20076;-75
2023/10/02 09:27:30;;;;;;;14.77;8.63;;;;;;;19.82;86.31;100969.94;6169702;23;20426;-71
2023/10/02 09:32:52;;;;;;;10.05;8.15;;;;;;;20.72;82.07;101001.91;6164571;23;20020;-70
2023/10/02 09:35:39;;;;;;;12.13;7.88;;;;;;;20.58;81.61;100962.28;6139937;23;20033;-71
2023/10/02 09:38:31;;;;;;;11.30;7.70;;;;;;;20.97;80.50;101018.38;6168487;23;20452;-71
2023/10/02 09:41:11;;;;;;;;;;;;;;;21.14;81.10;101038.19;6140596;23;20415;-73
2023/10/02 09:43:38;;;;;;;8.43;7.50;;;;;;;21.22;83.36;101112.22;6142399;23;19917;-72
2023/10/02 09:46:06;;;;;;;11.63;8.18;;;;;;;21.41;81.81;101082.00;6138893;23;20016;-73
2023/10/02 09:51:26;;;;;;;9.65;7.85;;;;;;;21.68;79.88;101063.44;6139304;23;20013;-70
2023/10/02 09:54:05;;;;;;;9.18;7.43;;;;;;;21.90;81.04;101110.38;6142168;23;20055;-70
2023/10/02 09:57:25;;;;;;;10.68;7.95;;;;;;;21.95;77.92;101032.47;6165903;23;20025;-71
2023/10/02 09:59:54;;;;;;;11.35;8.00;;;;;;;22.04;75.03;100966.59;6020992;23;20465;-70
2023/10/02 10:05:02;;;;;;;8.45;7.65;;;;;;;22.18;75.24;101016.88;6139964;23;20048;-71
2023/10/02 10:10:28;;;;;;;11.02;7.70;;;;;;;22.25;74.47;101010.00;6139408;23;20022;-70
2023/10/02 10:12:58;;;;;;;9.13;7.80;;;;;;;22.46;72.02;100937.50;6172192;23;20047;-74
2023/10/02 10:15:25;;;;;;;12.95;7.70;;;;;;;22.49;72.23;100963.09;6137482;23;20028;-74
2023/10/02 10:17:53;;;;;;;11.35;8.48;;;;;;;22.01;72.12;100878.69;6158205;23;20534;-70
2023/10/02 10:20:20;;;;;;;9.68;7.70;;;;;;;22.65;70.59;100939.22;6113739;23;20032;-70
2023/10/02 10:22:51;;;;;;;10.52;8.68;;;;;;;22.61;69.71;100908.41;6144919;23;20036;-73
2023/10/02 10:28:05;;;;;;;12.27;9.40;;;;;;;22.87;70.63;100955.78;6155196;23;20175;-72
2023/10/02 10:30:39;;;;;;;9.88;7.82;;;;;;;23.07;70.00;100973.41;6134440;23;20251;-74
2023/10/02 10:35:48;;;;;;;12.82;7.70;;;;;;;23.21;69.50;100985.41;6169094;23;20028;-72
2023/10/02 10:41:33;;;;;;;10.75;8.15;;;;;;;23.45;70.84;101043.66;6146408;23;20362;-71
2023/10/02 10:44:06;;;;;;;10.10;7.55;;;;;;;23.55;72.01;101069.50;6138015;23;20053;-73
2023/10/02 10:46:35;;;;;;;11.68;7.80;;;;;;;24.09;67.17;100947.72;6120548;23;20191;-73
2023/10/02 10:49:16;;;;;;;13.75;8.60;;;;;;;24.22;64.94;100890.09;6142248;23;20436;-71
2023/10/02 10:51:42;;;;;;;9.90;7.95;;;;;;;23.83;63.35;100778.91;6166690;23;20323;-70
2023/10/02 10:54:19;;;;;;;11.00;8.13;;;;;;;24.25;64.30;100913.91;6138330;23;20031;-69
2023/10/02 10:57:22;;;;;;;9.02;8.13;;;;;;;23.68;65.73;100887.72;6140863;23;20032;-69
2023/10/02 11:03:07;;;;;;;12.00;8.65;;;;;;;24.52;65.04;100955.75;6169643;23;20048;-72
2023/10/02 11:05:36;;;;;;;9.50;8.43;;;;;;;24.53;65.86;100988.78;6141090;23;21006;-71
2023/10/02 11:08:25;;;;;;;12.23;8.10;;;;;;;24.88;67.00;101082.47;6117244;23;20062;-76
2023/10/02 11:11:10;;;;;;;8.70;7.80;;;;;;;25.01;64.89;100996.03;6164139;23;20476;-71
2023/10/02 11:14:01;;;;;;;9.65;7.97;;;;;;;24.78;64.03;100936.81;6162976;23;20074;-71
2023/10/02 11:16:36;;;;;;;13.52;8.43;;;;;;;24.83;60.67;100861.97;6139708;23;20049;-72
2023/10/02 11:22:01;;;;;;;8.52;7.63;;;;;;;25.02;60.19;100884.13;6119780;23;20535;-72
2023/10/02 11:24:28;;;;;;;10.93;7.93;;;;;;;25.10;62.35;100988.84;6146120;23;20462;-69
2023/10/02 11:27:06;;;;;;;16.10;8.93;;;;;;;25.05;63.14;101005.44;6165960;23;20065;-70
2023/10/02 11:29:40;;;;;;;11.85;8.27;;;;;;;25.36;61.47;100986.00;6139954;23;20028;-72
2023/10/02 11:32:19;;;;;;;12.00;8.30;;;;;;;25.26;59.71;100880.59;6110314;23;20080;-72
2023/10/02 11:34:51;;;;;;;13.85;9.15;;;;;;;25.38;58.85;100889.94;6164803;23;20113;-73
2023/10/02 11:37:19;;;;;;;10.83;8.17;;;;;;;25.48;60.84;101002.63;6163478;23;20110;-71
2023/10/02 11:39:50;;;;;;;8.48;7.55;;;;;;;25.33;60.77;100982.81;6113740;23;20017;-71
2023/10/02 11:42:20;;;;;;;9.33;8.27;;;;;;;25.51;59.44;100950.38;6164029;23;20436;-70
2023/10/02 11:44:47;;;;;;;10.93;7.95;;;;;;;25.43;58.45;100922.50;6132861;23;20336;-72
2023/10/02 11:47:14;;;;;;;12.73;8.30;;;;;;;25.57;58.83;100963.94;6169741;23;20137;-74
2023/10/02 11:49:42;;;;;;;17.35;9.00;;;;;;;25.00;57.64;100856.59;6137910;23;20400;-72
2023/10/02 11:52:09;;;;;;;10.70;8.80;;;;;;;25.16;59.05;100963.13;6140323;23;20021;-72
2023/10/02 11:54:36;;;;;;;9.90;7.78;;;;;;;25.13;60.45;100995.72;6143199;23;20027;-70
2023/10/02 11:57:08;;;;;;;11.75;7.93;;;;;;;25.44;58.90;100988.69;6134961;23;20035;-71
2023/10/02 11:59:41;;;;;;;12.45;8.27;;;;;;;25.28;59.09;100976.09;6171174;23;20028;-72
2023/10/02 12:02:12;;;;;;;12.52;8.32;;;;;;;25.53;57.86;100962.63;6130829;23;20224;-71
2023/10/02 12:04:38;;;;;;;13.25;8.82;;;;;;;25.38;60.39;101004.63;6167964;23;20040;-72
2023/10/02 12:07:06;;;;;;;9.98;8.15;;;;;;;25.51;58.21;100951.19;6135310;23;20485;-72
2023/10/02 12:09:33;;;;;;;12.25;8.60;;;;;;;25.45;60.38;101006.47;6139193;23;20428;-70
2023/10/02 12:12:00;;;;;;;17.23;8.25;;;;;;;26.01;56.58;100898.94;6163202;23;20035;-73
2023/10/02 12:14:29;;;;;;;8.68;7.63;;;;;;;25.88;57.65;100953.28;6140189;23;20032;-70
2023/10/02 12:16:57;;;;;;;13.13;8.30;;;;;;;25.61;56.00;100841.66;6162394;23;20036;-71
2023/10/02 12:19:35;;;;;;;9.65;8.02;;;;;;;26.01;58.34;101017.28;6165197;23;20048;-73
2023/10/02 12:22:05;;;;;;;11.88;8.50;;;;;;;25.14;57.05;100826.34;6132131;23;20031;-71
2023/10/02 12:24:36;;;;;;;11.65;7.93;;;;;;;25.82;57.08;100932.47;6165891;23;20029;-71
2023/10/02 12:27:10;;;;;;;10.20;7.75;;;;;;;25.73;55.83;100871.66;6137010;23;20061;-72
2023/10/02 12:29:37;;;;;;;10.95;8.15;;;;;;;25.75;55.97;100918.03;6169767;23;20048;-71
2023/10/02 12:32:05;;;;;;;16.95;8.68;;;;;;;25.80;57.79;100958.69;6137467;23;20546;-73
2023/10/02 12:34:33;;;;;;;14.07;8.88;;;;;;;25.74;56.22;100891.31;6142815;23;20029;-72
2023/10/02 12:37:00;;;;;;;10.73;8.15;;;;;;;25.91;57.42;100948.59;6138327;23;20582;-73
2023/10/02 12:39:28;;;;;;;13.00;8.40;;;;;;;25.89;56.17;100873.44;6167472;23;20040;-70
2023/10/02 12:41:56;;;;;;;10.70;8.20;;;;;;;26.22;57.67;100987.13;6140346;23;20032;-71
2023/10/02 12:44:22;;;;;;;9.93;8.18;;;;;;;26.82;56.51;101006.28;6114743;23;20131;-72
2023/10/02 12:46:50;;;;;;;11.20;7.95;;;;;;;26.44;56.88;100930.78;6139141;23;20387;-71
2023/10/02 12:49:21;;;;;;;8.70;7.55;;;;;;;27.17;53.64;100907.00;6169834;23;20030;-73
2023/10/02 12:51:50;;;;;;;10.05;7.88;;;;;;;26.74;53.24;100863.63;6117659;23;20052;-71
2023/10/02 12:54:16;;;;;;;10.90;7.78;;;;;;;26.82;53.75;100898.56;6138490;23;20028;-69
2023/10/02 12:56:45;;;;;;;11.15;8.32;;;;;;;27.21;55.54;101034.97;6163540;23;20044;-72